createdAt,value
2018-08-19T00:01:30.184Z,9.20
2018-08-19T00:06:34.100Z,6.83
2018-08-19T00:11:37.764Z,5.40
2018-08-19T00:16:41.352Z,6.03
2018-08-19T00:21:44.827Z,7.07
2018-08-19T00:26:48.255Z,7.30
2018-08-19T00:31:52.345Z,6.63
2018-08-19T00:36:56.134Z,8.00
2018-08-19T00:42:01.140Z,9.30
2018-08-19T00:47:04.616Z,7.33
2018-08-19T00:52:08.402Z,7.87
2018-08-19T00:57:12.335Z,7.60
2018-08-19T01:02:15.947Z,8.97
2018-08-19T01:07:19.665Z,7.47
2018-08-19T01:12:23.524Z,6.73
2018-08-19T01:17:32.615Z,7.10
2018-08-19T01:22:40.462Z,8.20
2018-08-19T01:27:44.092Z,7.00
2018-08-19T01:32:48.048Z,7.00
2018-08-19T01:37:51.945Z,7.00
2018-08-19T01:42:55.445Z,7.27
2018-08-19T01:47:59.014Z,7.00
2018-08-19T01:53:02.278Z,6.30
2018-08-19T01:58:05.859Z,6.10
2018-08-19T02:03:09.862Z,6.60
2018-08-19T02:08:13.740Z,5.20
2018-08-19T02:13:18.301Z,7.20
2018-08-19T02:18:22.679Z,5.90
2018-08-19T02:23:25.721Z,7.10
2018-08-19T02:28:29.400Z,7.07
2018-08-19T02:33:34.763Z,7.37
2018-08-19T02:38:38.864Z,5.60
2018-08-19T02:43:50.989Z,7.03
2018-08-19T02:48:54.810Z,6.17
2018-08-19T02:53:58.362Z,5.53
2018-08-19T02:59:01.450Z,7.00
2018-08-19T03:04:04.835Z,6.20
2018-08-19T03:09:10.698Z,7.07
2018-08-19T03:14:13.737Z,5.77
2018-08-19T03:19:16.892Z,5.37
2018-08-19T03:24:20.328Z,6.03
2018-08-19T03:29:23.496Z,5.00
2018-08-19T03:34:30.320Z,6.20
2018-08-19T03:39:35.329Z,6.20
2018-08-19T03:44:38.697Z,5.20
2018-08-19T03:49:42.037Z,4.93
2018-08-19T03:54:46.283Z,5.33
2018-08-19T03:59:49.917Z,5.17
2018-08-19T04:04:56.922Z,5.17
2018-08-19T04:10:00.457Z,5.77
2018-08-19T04:15:06.438Z,5.30
2018-08-19T04:20:10.027Z,5.80
2018-08-19T04:25:14.092Z,6.17
2018-08-19T04:30:18.071Z,5.90
2018-08-19T04:35:21.444Z,5.63
2018-08-19T04:40:25.191Z,5.40
2018-08-19T04:45:28.812Z,4.97
2018-08-19T04:50:33.381Z,5.57
2018-08-19T04:55:36.695Z,5.30
2018-08-19T05:00:40.726Z,5.60
2018-08-19T05:05:44.779Z,5.40
2018-08-19T05:10:48.727Z,5.90
2018-08-19T05:15:52.162Z,6.23
2018-08-19T05:21:16.656Z,5.77
2018-08-19T05:26:23.272Z,5.47
2018-08-19T05:31:27.121Z,6.97
2018-08-19T05:36:36.519Z,8.13
2018-08-19T05:41:47.241Z,8.77
2018-08-19T05:46:51.126Z,6.63
2018-08-19T05:51:55.081Z,8.47
2018-08-19T05:57:03.151Z,6.80
2018-08-19T06:02:06.625Z,7.20
2018-08-19T06:07:09.884Z,5.20
2018-08-19T06:12:13.128Z,8.37
2018-08-19T06:17:16.428Z,6.43
2018-08-19T06:22:26.047Z,7.63
2018-08-19T06:27:42.100Z,6.87
2018-08-19T06:32:46.765Z,6.83
2018-08-19T06:37:52.133Z,7.50
2018-08-19T06:42:56.487Z,5.57
2018-08-19T06:48:00.561Z,6.93
2018-08-19T06:53:04.123Z,6.57
2018-08-19T06:58:07.540Z,7.60
2018-08-19T07:03:10.951Z,7.07
2018-08-19T07:08:15.066Z,8.47
2018-08-19T07:13:18.693Z,6.37
2018-08-19T07:18:22.117Z,6.90
2018-08-19T07:23:25.458Z,7.57
2018-08-19T07:28:32.123Z,7.73
2018-08-19T07:33:35.710Z,7.73
2018-08-19T07:38:39.593Z,8.10
2018-08-19T07:43:42.833Z,7.17
2018-08-19T07:48:45.991Z,7.13
2018-08-19T07:53:49.168Z,8.53
2018-08-19T07:58:58.359Z,8.90
2018-08-19T08:04:01.579Z,9.07
2018-08-19T08:09:10.603Z,7.87
2018-08-19T08:14:15.971Z,8.20
2018-08-19T08:19:19.847Z,9.20
2018-08-19T08:24:23.087Z,8.73
2018-08-19T08:29:26.201Z,7.33
2018-08-19T08:34:29.442Z,9.90
2018-08-19T08:39:34.146Z,7.17
2018-08-19T08:44:37.854Z,7.97
2018-08-19T08:49:46.033Z,9.20
2018-08-19T08:54:59.580Z,10.30
2018-08-19T09:00:04.164Z,8.70
2018-08-19T09:05:10.206Z,8.50
2018-08-19T09:10:15.014Z,9.37
2018-08-19T09:15:19.431Z,8.53
2018-08-19T09:20:23.417Z,9.10
2018-08-19T09:25:28.009Z,8.97
2018-08-19T09:30:37.558Z,8.70
2018-08-19T09:35:41.927Z,8.87
2018-08-19T09:40:46.621Z,9.33
2018-08-19T09:45:49.843Z,8.73
2018-08-19T09:51:07.653Z,9.50
2018-08-19T09:56:18.752Z,8.40
2018-08-19T10:01:28.216Z,7.63
2018-08-19T10:06:31.379Z,10.00
2018-08-19T10:11:34.589Z,8.10
2018-08-19T10:16:40.519Z,8.57
2018-08-19T10:21:46.082Z,8.73
2018-08-19T10:26:49.617Z,8.60
2018-08-19T10:32:07.643Z,8.53
2018-08-19T10:37:12.548Z,8.90
2018-08-19T10:42:23.128Z,7.90
2018-08-19T10:47:27.436Z,8.70
2018-08-19T10:52:31.771Z,7.30
2018-08-19T10:57:35.212Z,8.60
2018-08-19T11:02:38.465Z,8.47
2018-08-19T11:07:41.790Z,8.00
2018-08-19T11:12:46.936Z,8.07
2018-08-19T11:17:50.387Z,9.50
2018-08-19T11:22:54.674Z,10.67
2018-08-19T11:27:58.201Z,8.13
2018-08-19T11:33:11.327Z,9.83
2018-08-19T11:38:16.187Z,8.47
2018-08-19T11:43:19.661Z,8.70
2018-08-19T11:48:23.359Z,8.37
2018-08-19T11:53:27.478Z,9.37
2018-08-19T11:58:36.976Z,10.07
2018-08-19T12:03:53.970Z,8.40
2018-08-19T12:08:58.648Z,8.40
2018-08-19T12:14:05.358Z,8.13
2018-08-19T12:19:14.259Z,8.40
2018-08-19T12:24:26.450Z,6.60
2018-08-19T12:29:31.208Z,8.00
2018-08-19T12:34:38.426Z,9.13
2018-08-19T12:39:42.232Z,9.27
2018-08-19T12:45:01.632Z,8.50
2018-08-19T12:50:12.555Z,8.90
2018-08-19T12:55:16.281Z,9.00
2018-08-19T13:00:21.736Z,9.27
2018-08-19T13:05:25.360Z,9.03
2018-08-19T13:10:35.258Z,9.97
2018-08-19T13:15:38.424Z,8.00
2018-08-19T13:20:42.195Z,6.17
2018-08-19T13:25:45.948Z,6.90
2018-08-19T13:30:49.546Z,8.17
2018-08-19T13:35:53.447Z,7.90
2018-08-19T13:40:57.684Z,9.90
2018-08-19T13:46:01.170Z,10.70
2018-08-19T13:51:05.151Z,10.23
2018-08-19T13:56:09.605Z,9.30
2018-08-19T14:01:13.414Z,9.80
2018-08-19T14:06:17.530Z,8.60
2018-08-19T14:11:21.511Z,8.33
2018-08-19T14:16:25.150Z,8.50
2018-08-19T14:21:29.095Z,10.80
2018-08-19T14:26:33.257Z,8.97
2018-08-19T14:31:36.856Z,10.30
2018-08-19T14:36:40.486Z,11.67
2018-08-19T14:41:44.933Z,10.40
2018-08-19T14:46:51.629Z,10.80
2018-08-19T14:51:58.591Z,9.40
2018-08-19T14:57:02.339Z,10.30
2018-08-19T15:02:10.339Z,11.27
2018-08-19T15:07:14.394Z,10.60
2018-08-19T15:12:27.211Z,12.50
2018-08-19T15:17:30.958Z,12.07
2018-08-19T15:22:34.655Z,11.00
2018-08-19T15:27:43.426Z,11.87
2018-08-19T15:32:47.396Z,10.63
2018-08-19T15:37:50.663Z,11.57
2018-08-19T15:42:54.694Z,13.20
2018-08-19T15:47:58.163Z,13.20
2018-08-19T15:53:03.585Z,13.23
2018-08-19T15:58:07.366Z,11.10
2018-08-19T16:03:11.907Z,10.63
2018-08-19T16:08:15.511Z,11.20
2018-08-19T16:13:19.022Z,10.63
2018-08-19T16:18:22.677Z,11.80
2018-08-19T16:23:26.943Z,12.80
2018-08-19T16:28:40.622Z,11.43
2018-08-19T16:33:45.039Z,12.17
2018-08-19T16:38:48.655Z,12.47
2018-08-19T16:43:52.707Z,12.20
2018-08-19T16:48:56.336Z,12.20
2018-08-19T16:54:00.607Z,13.17
2018-08-19T16:59:04.365Z,12.60
2018-08-19T17:04:08.075Z,12.33
2018-08-19T17:09:11.592Z,14.37
2018-08-19T17:14:15.109Z,13.70
2018-08-19T17:19:18.752Z,10.50
2018-08-19T17:24:23.201Z,14.70
2018-08-19T17:29:28.942Z,13.43
2018-08-19T17:34:32.439Z,12.93
2018-08-19T17:39:36.075Z,15.13
2018-08-19T17:44:41.074Z,11.90
2018-08-19T17:49:44.789Z,14.40
2018-08-19T17:54:48.781Z,15.20
2018-08-19T17:59:52.802Z,15.00
2018-08-19T18:04:56.746Z,16.20
2018-08-19T18:10:00.398Z,18.03
2018-08-19T18:15:04.288Z,17.63
2018-08-19T18:20:40.343Z,16.20
2018-08-19T18:25:48.794Z,15.73
2018-08-19T18:31:09.175Z,14.07
2018-08-19T18:36:13.052Z,13.20
2018-08-19T18:41:23.280Z,13.60
2018-08-19T18:46:27.861Z,14.70
2018-08-19T18:51:32.689Z,11.80
2018-08-19T18:56:36.667Z,8.83
2018-08-19T19:01:42.390Z,11.20
2018-08-19T19:06:46.385Z,15.90
2018-08-19T19:11:51.554Z,15.47
2018-08-19T19:16:55.673Z,14.00
2018-08-19T19:22:00.656Z,16.47
2018-08-19T19:27:05.293Z,18.50
2018-08-19T19:32:32.545Z,13.30
2018-08-19T19:37:36.421Z,22.83
2018-08-19T19:42:40.528Z,23.57
2018-08-19T19:47:45.371Z,27.20
2018-08-19T19:52:54.710Z,23.00
2018-08-19T19:57:58.373Z,24.60
2018-08-19T20:03:01.902Z,25.30
2018-08-19T20:08:05.644Z,22.50
2018-08-19T20:13:09.588Z,26.73
2018-08-19T20:18:13.827Z,18.10
2018-08-19T20:23:24.196Z,27.73
2018-08-19T20:28:28.837Z,25.60
2018-08-19T20:33:32.347Z,23.50
2018-08-19T20:38:35.865Z,20.57
2018-08-19T20:43:39.418Z,25.40
2018-08-19T20:48:43.659Z,18.73
2018-08-19T20:53:47.380Z,21.37
2018-08-19T20:58:50.935Z,24.47
2018-08-19T21:03:54.321Z,26.70
2018-08-19T21:08:57.648Z,25.03
2018-08-19T21:14:01.191Z,21.73
2018-08-19T21:19:04.841Z,18.30
2018-08-19T21:24:08.654Z,11.80
2018-08-19T21:29:13.138Z,12.97
2018-08-19T21:34:16.665Z,12.13
2018-08-19T21:39:20.318Z,10.40
2018-08-19T21:44:23.573Z,11.70
2018-08-19T21:49:27.331Z,13.37
2018-08-19T21:54:30.806Z,11.30
2018-08-19T21:59:34.149Z,9.93
2018-08-19T22:04:37.291Z,10.07
2018-08-19T22:09:40.727Z,12.00
2018-08-19T22:14:44.078Z,15.70
2018-08-19T22:19:47.463Z,14.90
2018-08-19T22:24:50.703Z,14.53
2018-08-19T22:29:54.758Z,16.57
2018-08-19T22:34:58.174Z,18.30
2018-08-19T22:40:01.651Z,16.50
2018-08-19T22:45:04.843Z,17.37
2018-08-19T22:50:08.584Z,19.23
2018-08-19T22:55:12.149Z,19.57
2018-08-19T23:00:20.368Z,19.90
2018-08-19T23:05:23.595Z,20.50
2018-08-19T23:10:26.969Z,20.30
2018-08-19T23:15:36.919Z,21.97
2018-08-19T23:20:40.502Z,24.53
2018-08-19T23:25:43.938Z,23.43
2018-08-19T23:30:48.203Z,22.70
2018-08-19T23:35:51.337Z,22.43
2018-08-19T23:40:54.770Z,25.47
2018-08-19T23:45:57.906Z,25.20
2018-08-19T23:51:01.704Z,24.10
2018-08-19T23:56:04.828Z,24.10
